sensor_id;sensor_type;location;lat;lon;timestamp;P1;durP1;ratioP1;P2;durP2;ratioP2
44189;SDS011;29856;52.144;5.430;2023-04-02T00:08:50;15.93;;;10.32;;
44189;SDS011;29856;52.144;5.430;2023-04-02T00:11:20;13.73;;;9.52;;
44189;SDS011;29856;52.144;5.430;2023-04-02T00:14:00;15.45;;;9.55;;
44189;SDS011;29856;52.144;5.430;2023-04-02T00:16:37;16.98;;;10.77;;
44189;SDS011;29856;52.144;5.430;2023-04-02T00:19:03;18.75;;;10.02;;
44189;SDS011;29856;52.144;5.430;2023-04-02T00:21:32;15.63;;;8.73;;
44189;SDS011;29856;52.144;5.430;2023-04-02T00:24:00;17.08;;;10.68;;
44189;SDS011;29856;52.144;5.430;2023-04-02T00:26:38;15.70;;;10.38;;
44189;SDS011;29856;52.144;5.430;2023-04-02T00:29:09;14.13;;;10.55;;
44189;SDS011;29856;52.144;5.430;2023-04-02T00:31:38;16.30;;;10.38;;
44189;SDS011;29856;52.144;5.430;2023-04-02T00:34:08;17.33;;;10.23;;
44189;SDS011;29856;52.144;5.430;2023-04-02T00:36:39;19.67;;;10.85;;
44189;SDS011;29856;52.144;5.430;2023-04-02T00:39:09;18.02;;;10.77;;
44189;SDS011;29856;52.144;5.430;2023-04-02T00:41:41;28.70;;;10.73;;
44189;SDS011;29856;52.144;5.430;2023-04-02T00:44:10;23.17;;;10.65;;
44189;SDS011;29856;52.144;5.430;2023-04-02T00:46:39;15.75;;;10.70;;
44189;SDS011;29856;52.144;5.430;2023-04-02T00:49:13;17.85;;;10.95;;
44189;SDS011;29856;52.144;5.430;2023-04-02T00:52:01;17.55;;;10.32;;
44189;SDS011;29856;52.144;5.430;2023-04-02T00:54:30;20.15;;;11.23;;
44189;SDS011;29856;52.144;5.430;2023-04-02T00:57:02;18.20;;;11.02;;
44189;SDS011;29856;52.144;5.430;2023-04-02T00:59:30;16.45;;;10.00;;
44189;SDS011;29856;52.144;5.430;2023-04-02T01:02:00;18.65;;;10.27;;
44189;SDS011;29856;52.144;5.430;2023-04-02T01:04:59;19.92;;;10.48;;
44189;SDS011;29856;52.144;5.430;2023-04-02T01:07:34;15.13;;;10.15;;
44189;SDS011;29856;52.144;5.430;2023-04-02T01:13:30;18.00;;;10.48;;
44189;SDS011;29856;52.144;5.430;2023-04-02T01:16:09;16.42;;;10.05;;
44189;SDS011;29856;52.144;5.430;2023-04-02T01:18:50;16.33;;;10.05;;
44189;SDS011;29856;52.144;5.430;2023-04-02T01:21:28;16.70;;;10.38;;
44189;SDS011;29856;52.144;5.430;2023-04-02T01:24:13;16.25;;;9.63;;
44189;SDS011;29856;52.144;5.430;2023-04-02T01:26:52;13.75;;;8.50;;
44189;SDS011;29856;52.144;5.430;2023-04-02T01:29:34;13.68;;;8.55;;
44189;SDS011;29856;52.144;5.430;2023-04-02T01:32:06;12.70;;;8.77;;
44189;SDS011;29856;52.144;5.430;2023-04-02T01:34:35;13.63;;;9.00;;
44189;SDS011;29856;52.144;5.430;2023-04-02T01:42:54;15.95;;;9.40;;
44189;SDS011;29856;52.144;5.430;2023-04-02T01:45:39;12.48;;;7.88;;
44189;SDS011;29856;52.144;5.430;2023-04-02T01:48:12;11.00;;;8.07;;
44189;SDS011;29856;52.144;5.430;2023-04-02T01:50:43;14.63;;;9.00;;
44189;SDS011;29856;52.144;5.430;2023-04-02T01:53:12;14.45;;;9.93;;
44189;SDS011;29856;52.144;5.430;2023-04-02T01:55:41;14.43;;;9.00;;
44189;SDS011;29856;52.144;5.430;2023-04-02T01:58:13;11.10;;;8.30;;
44189;SDS011;29856;52.144;5.430;2023-04-02T02:00:45;17.67;;;10.13;;
44189;SDS011;29856;52.144;5.430;2023-04-02T02:03:19;19.45;;;9.88;;
44189;SDS011;29856;52.144;5.430;2023-04-02T02:05:45;13.00;;;8.88;;
44189;SDS011;29856;52.144;5.430;2023-04-02T02:08:17;17.27;;;9.68;;
44189;SDS011;29856;52.144;5.430;2023-04-02T02:10:47;16.30;;;9.48;;
44189;SDS011;29856;52.144;5.430;2023-04-02T02:13:13;16.58;;;9.43;;
44189;SDS011;29856;52.144;5.430;2023-04-02T02:15:40;16.60;;;8.32;;
44189;SDS011;29856;52.144;5.430;2023-04-02T02:18:05;18.95;;;8.98;;
44189;SDS011;29856;52.144;5.430;2023-04-02T02:20:36;14.52;;;9.15;;
44189;SDS011;29856;52.144;5.430;2023-04-02T02:23:01;18.50;;;9.65;;
44189;SDS011;29856;52.144;5.430;2023-04-02T02:25:32;15.60;;;9.40;;
44189;SDS011;29856;52.144;5.430;2023-04-02T02:30:58;18.42;;;9.35;;
44189;SDS011;29856;52.144;5.430;2023-04-02T02:33:34;14.75;;;7.88;;
44189;SDS011;29856;52.144;5.430;2023-04-02T02:38:54;26.13;;;9.93;;
44189;SDS011;29856;52.144;5.430;2023-04-02T02:41:44;19.33;;;9.40;;
44189;SDS011;29856;52.144;5.430;2023-04-02T02:44:19;17.70;;;8.43;;
44189;SDS011;29856;52.144;5.430;2023-04-02T02:49:48;19.83;;;9.48;;
44189;SDS011;29856;52.144;5.430;2023-04-02T02:52:28;20.05;;;10.27;;
44189;SDS011;29856;52.144;5.430;2023-04-02T02:55:38;18.63;;;9.60;;
44189;SDS011;29856;52.144;5.430;2023-04-02T02:57:56;18.42;;;9.93;;
44189;SDS011;29856;52.144;5.430;2023-04-02T03:00:26;18.02;;;8.75;;
44189;SDS011;29856;52.144;5.430;2023-04-02T03:02:52;21.67;;;11.00;;
44189;SDS011;29856;52.144;5.430;2023-04-02T03:05:20;18.83;;;11.05;;
44189;SDS011;29856;52.144;5.430;2023-04-02T03:07:48;21.73;;;11.13;;
44189;SDS011;29856;52.144;5.430;2023-04-02T03:10:22;22.80;;;10.90;;
44189;SDS011;29856;52.144;5.430;2023-04-02T03:13:11;32.90;;;16.85;;
44189;SDS011;29856;52.144;5.430;2023-04-02T03:21:12;15.77;;;9.68;;
44189;SDS011;29856;52.144;5.430;2023-04-02T03:23:46;14.50;;;8.52;;
44189;SDS011;29856;52.144;5.430;2023-04-02T03:26:18;12.52;;;8.32;;
44189;SDS011;29856;52.144;5.430;2023-04-02T03:28:58;18.05;;;10.35;;
44189;SDS011;29856;52.144;5.430;2023-04-02T03:31:32;19.35;;;10.73;;
44189;SDS011;29856;52.144;5.430;2023-04-02T03:34:13;32.17;;;16.20;;
44189;SDS011;29856;52.144;5.430;2023-04-02T03:37:04;20.08;;;9.95;;
44189;SDS011;29856;52.144;5.430;2023-04-02T03:39:44;16.52;;;9.85;;
44189;SDS011;29856;52.144;5.430;2023-04-02T03:47:29;19.23;;;9.40;;
44189;SDS011;29856;52.144;5.430;2023-04-02T03:52:50;18.45;;;10.52;;
44189;SDS011;29856;52.144;5.430;2023-04-02T03:55:27;13.98;;;9.40;;
44189;SDS011;29856;52.144;5.430;2023-04-02T04:00:53;18.35;;;10.57;;
44189;SDS011;29856;52.144;5.430;2023-04-02T04:03:29;11.10;;;8.10;;
44189;SDS011;29856;52.144;5.430;2023-04-02T04:06:09;9.68;;;6.45;;
44189;SDS011;29856;52.144;5.430;2023-04-02T04:08:36;13.43;;;7.65;;
44189;SDS011;29856;52.144;5.430;2023-04-02T04:11:09;13.38;;;7.57;;
44189;SDS011;29856;52.144;5.430;2023-04-02T04:13:42;14.20;;;8.27;;
44189;SDS011;29856;52.144;5.430;2023-04-02T04:16:18;12.32;;;6.93;;
44189;SDS011;29856;52.144;5.430;2023-04-02T04:21:19;10.30;;;5.82;;
44189;SDS011;29856;52.144;5.430;2023-04-02T04:23:52;12.30;;;8.23;;
44189;SDS011;29856;52.144;5.430;2023-04-02T04:26:19;13.65;;;7.50;;
44189;SDS011;29856;52.144;5.430;2023-04-02T04:32:27;12.27;;;7.13;;
44189;SDS011;29856;52.144;5.430;2023-04-02T04:37:38;11.15;;;6.82;;
44189;SDS011;29856;52.144;5.430;2023-04-02T04:40:26;11.65;;;6.78;;
44189;SDS011;29856;52.144;5.430;2023-04-02T04:42:56;11.57;;;6.40;;
44189;SDS011;29856;52.144;5.430;2023-04-02T04:45:38;10.02;;;7.00;;
44189;SDS011;29856;52.144;5.430;2023-04-02T04:48:09;10.35;;;6.03;;
44189;SDS011;29856;52.144;5.430;2023-04-02T04:50:45;9.48;;;5.63;;
44189;SDS011;29856;52.144;5.430;2023-04-02T04:53:22;10.48;;;5.22;;
44189;SDS011;29856;52.144;5.430;2023-04-02T04:55:51;8.32;;;5.25;;
44189;SDS011;29856;52.144;5.430;2023-04-02T04:58:23;8.80;;;5.13;;
44189;SDS011;29856;52.144;5.430;2023-04-02T05:01:01;10.40;;;5.53;;
44189;SDS011;29856;52.144;5.430;2023-04-02T05:06:14;8.50;;;4.90;;
44189;SDS011;29856;52.144;5.430;2023-04-02T05:09:07;5.95;;;3.97;;
44189;SDS011;29856;52.144;5.430;2023-04-02T05:14:30;10.05;;;3.92;;
44189;SDS011;29856;52.144;5.430;2023-04-02T05:19:35;8.88;;;3.90;;
44189;SDS011;29856;52.144;5.430;2023-04-02T05:22:18;12.93;;;4.05;;
44189;SDS011;29856;52.144;5.430;2023-04-02T05:32:53;8.25;;;3.45;;
44189;SDS011;29856;52.144;5.430;2023-04-02T05:35:27;7.90;;;3.25;;
44189;SDS011;29856;52.144;5.430;2023-04-02T05:37:55;10.90;;;3.72;;
44189;SDS011;29856;52.144;5.430;2023-04-02T05:40:26;8.05;;;3.35;;
44189;SDS011;29856;52.144;5.430;2023-04-02T05:43:03;8.45;;;3.00;;
44189;SDS011;29856;52.144;5.430;2023-04-02T05:45:34;8.23;;;3.25;;
44189;SDS011;29856;52.144;5.430;2023-04-02T05:48:02;6.55;;;3.00;;
44189;SDS011;29856;52.144;5.430;2023-04-02T05:50:51;7.90;;;3.20;;
44189;SDS011;29856;52.144;5.430;2023-04-02T05:53:20;6.80;;;2.85;;
44189;SDS011;29856;52.144;5.430;2023-04-02T05:58:38;6.53;;;2.78;;
44189;SDS011;29856;52.144;5.430;2023-04-02T06:03:56;8.48;;;2.58;;
44189;SDS011;29856;52.144;5.430;2023-04-02T06:09:18;8.00;;;3.05;;
44189;SDS011;29856;52.144;5.430;2023-04-02T06:12:00;5.28;;;2.70;;
44189;SDS011;29856;52.144;5.430;2023-04-02T06:14:34;8.57;;;2.88;;
44189;SDS011;29856;52.144;5.430;2023-04-02T06:17:00;7.38;;;2.60;;
44189;SDS011;29856;52.144;5.430;2023-04-02T06:19:26;5.22;;;2.78;;
44189;SDS011;29856;52.144;5.430;2023-04-02T06:21:58;8.05;;;3.20;;
44189;SDS011;29856;52.144;5.430;2023-04-02T06:24:32;12.23;;;3.83;;
44189;SDS011;29856;52.144;5.430;2023-04-02T06:27:01;8.70;;;3.35;;
44189;SDS011;29856;52.144;5.430;2023-04-02T06:29:33;7.40;;;2.80;;
44189;SDS011;29856;52.144;5.430;2023-04-02T06:32:01;7.68;;;3.20;;
44189;SDS011;29856;52.144;5.430;2023-04-02T06:34:29;9.00;;;3.33;;
44189;SDS011;29856;52.144;5.430;2023-04-02T06:36:56;8.82;;;3.30;;
44189;SDS011;29856;52.144;5.430;2023-04-02T06:39:27;8.15;;;3.83;;
44189;SDS011;29856;52.144;5.430;2023-04-02T06:44:34;7.60;;;3.22;;
44189;SDS011;29856;52.144;5.430;2023-04-02T06:47:02;7.45;;;4.32;;
44189;SDS011;29856;52.144;5.430;2023-04-02T06:52:54;7.50;;;3.83;;
44189;SDS011;29856;52.144;5.430;2023-04-02T06:55:28;9.68;;;4.20;;
44189;SDS011;29856;52.144;5.430;2023-04-02T06:58:03;11.55;;;3.95;;
44189;SDS011;29856;52.144;5.430;2023-04-02T07:00:32;8.65;;;4.20;;
44189;SDS011;29856;52.144;5.430;2023-04-02T07:03:04;8.00;;;4.50;;
44189;SDS011;29856;52.144;5.430;2023-04-02T07:05:32;7.82;;;3.30;;
44189;SDS011;29856;52.144;5.430;2023-04-02T07:07:57;11.43;;;4.70;;
44189;SDS011;29856;52.144;5.430;2023-04-02T07:10:23;10.45;;;4.25;;
44189;SDS011;29856;52.144;5.430;2023-04-02T07:12:48;8.10;;;4.38;;
44189;SDS011;29856;52.144;5.430;2023-04-02T07:15:17;8.50;;;4.53;;
44189;SDS011;29856;52.144;5.430;2023-04-02T07:17:43;15.40;;;4.50;;
44189;SDS011;29856;52.144;5.430;2023-04-02T07:20:23;9.40;;;4.53;;
44189;SDS011;29856;52.144;5.430;2023-04-02T07:22:48;6.65;;;4.78;;
44189;SDS011;29856;52.144;5.430;2023-04-02T07:25:14;9.20;;;3.97;;
44189;SDS011;29856;52.144;5.430;2023-04-02T07:27:39;6.57;;;3.45;;
44189;SDS011;29856;52.144;5.430;2023-04-02T07:30:05;11.80;;;5.40;;
44189;SDS011;29856;52.144;5.430;2023-04-02T07:32:31;8.85;;;4.43;;
44189;SDS011;29856;52.144;5.430;2023-04-02T07:34:57;8.55;;;4.22;;
44189;SDS011;29856;52.144;5.430;2023-04-02T07:37:22;8.18;;;4.05;;
44189;SDS011;29856;52.144;5.430;2023-04-02T07:39:47;9.68;;;3.97;;
44189;SDS011;29856;52.144;5.430;2023-04-02T07:42:13;6.00;;;3.50;;
44189;SDS011;29856;52.144;5.430;2023-04-02T07:44:38;7.35;;;4.10;;
44189;SDS011;29856;52.144;5.430;2023-04-02T07:47:04;9.60;;;4.07;;
44189;SDS011;29856;52.144;5.430;2023-04-02T07:49:29;5.22;;;3.72;;
44189;SDS011;29856;52.144;5.430;2023-04-02T07:51:55;8.45;;;4.30;;
44189;SDS011;29856;52.144;5.430;2023-04-02T07:54:20;6.32;;;4.15;;
44189;SDS011;29856;52.144;5.430;2023-04-02T07:56:46;5.63;;;3.35;;
44189;SDS011;29856;52.144;5.430;2023-04-02T07:59:11;9.75;;;4.68;;
44189;SDS011;29856;52.144;5.430;2023-04-02T08:01:37;6.20;;;3.65;;
44189;SDS011;29856;52.144;5.430;2023-04-02T08:04:03;8.20;;;4.05;;
44189;SDS011;29856;52.144;5.430;2023-04-02T08:06:28;9.30;;;4.22;;
44189;SDS011;29856;52.144;5.430;2023-04-02T08:08:54;12.27;;;3.90;;
44189;SDS011;29856;52.144;5.430;2023-04-02T08:11:21;7.93;;;4.28;;
44189;SDS011;29856;52.144;5.430;2023-04-02T08:13:46;7.15;;;4.43;;
44189;SDS011;29856;52.144;5.430;2023-04-02T08:16:12;6.53;;;4.53;;
44189;SDS011;29856;52.144;5.430;2023-04-02T08:18:37;12.50;;;5.13;;
44189;SDS011;29856;52.144;5.430;2023-04-02T08:21:07;7.88;;;4.20;;
44189;SDS011;29856;52.144;5.430;2023-04-02T08:23:34;5.90;;;4.63;;
44189;SDS011;29856;52.144;5.430;2023-04-02T08:26:00;8.50;;;4.35;;
44189;SDS011;29856;52.144;5.430;2023-04-02T08:28:26;11.10;;;4.97;;
44189;SDS011;29856;52.144;5.430;2023-04-02T08:30:51;7.30;;;3.83;;
44189;SDS011;29856;52.144;5.430;2023-04-02T08:33:17;4.70;;;3.10;;
44189;SDS011;29856;52.144;5.430;2023-04-02T08:35:46;6.50;;;3.58;;
44189;SDS011;29856;52.144;5.430;2023-04-02T08:38:13;6.95;;;3.17;;
44189;SDS011;29856;52.144;5.430;2023-04-02T08:40:41;6.82;;;3.30;;
44189;SDS011;29856;52.144;5.430;2023-04-02T08:43:13;6.68;;;3.78;;
44189;SDS011;29856;52.144;5.430;2023-04-02T08:48:28;7.60;;;3.40;;
44189;SDS011;29856;52.144;5.430;2023-04-02T08:50:57;10.00;;;3.08;;
44189;SDS011;29856;52.144;5.430;2023-04-02T08:53:24;5.43;;;3.08;;
44189;SDS011;29856;52.144;5.430;2023-04-02T09:01:06;7.30;;;3.65;;
44189;SDS011;29856;52.144;5.430;2023-04-02T09:03:44;6.97;;;2.97;;
44189;SDS011;29856;52.144;5.430;2023-04-02T09:06:12;6.75;;;2.83;;
44189;SDS011;29856;52.144;5.430;2023-04-02T09:08:40;4.05;;;2.45;;
44189;SDS011;29856;52.144;5.430;2023-04-02T09:11:24;8.23;;;3.05;;
44189;SDS011;29856;52.144;5.430;2023-04-02T09:14:14;10.60;;;3.20;;
44189;SDS011;29856;52.144;5.430;2023-04-02T09:19:13;5.35;;;2.38;;
44189;SDS011;29856;52.144;5.430;2023-04-02T09:21:42;5.13;;;2.35;;
44189;SDS011;29856;52.144;5.430;2023-04-02T09:24:33;7.50;;;2.40;;
44189;SDS011;29856;52.144;5.430;2023-04-02T09:26:59;7.13;;;2.50;;
44189;SDS011;29856;52.144;5.430;2023-04-02T09:34:45;6.03;;;2.25;;
44189;SDS011;29856;52.144;5.430;2023-04-02T09:37:18;5.75;;;2.60;;
44189;SDS011;29856;52.144;5.430;2023-04-02T09:39:45;6.93;;;2.17;;
44189;SDS011;29856;52.144;5.430;2023-04-02T09:42:32;5.13;;;2.15;;
44189;SDS011;29856;52.144;5.430;2023-04-02T09:45:13;5.53;;;2.20;;
44189;SDS011;29856;52.144;5.430;2023-04-02T09:47:44;5.75;;;1.88;;
44189;SDS011;29856;52.144;5.430;2023-04-02T09:50:13;8.48;;;2.20;;
44189;SDS011;29856;52.144;5.430;2023-04-02T09:52:38;9.43;;;2.20;;
44189;SDS011;29856;52.144;5.430;2023-04-02T09:57:35;3.20;;;1.90;;
44189;SDS011;29856;52.144;5.430;2023-04-02T10:00:09;6.65;;;2.03;;
44189;SDS011;29856;52.144;5.430;2023-04-02T10:02:38;4.32;;;1.70;;
44189;SDS011;29856;52.144;5.430;2023-04-02T10:05:05;4.20;;;1.42;;
44189;SDS011;29856;52.144;5.430;2023-04-02T10:07:41;7.68;;;2.10;;
44189;SDS011;29856;52.144;5.430;2023-04-02T10:15:32;6.13;;;1.77;;
44189;SDS011;29856;52.144;5.430;2023-04-02T10:20:54;5.60;;;1.55;;
44189;SDS011;29856;52.144;5.430;2023-04-02T10:23:25;7.97;;;2.40;;
44189;SDS011;29856;52.144;5.430;2023-04-02T10:26:08;5.70;;;2.03;;
44189;SDS011;29856;52.144;5.430;2023-04-02T10:34:19;4.70;;;1.63;;
44189;SDS011;29856;52.144;5.430;2023-04-02T10:36:50;5.68;;;1.73;;
44189;SDS011;29856;52.144;5.430;2023-04-02T10:39:41;7.03;;;1.90;;
44189;SDS011;29856;52.144;5.430;2023-04-02T10:47:48;6.75;;;1.67;;
44189;SDS011;29856;52.144;5.430;2023-04-02T10:50:30;6.00;;;1.75;;
44189;SDS011;29856;52.144;5.430;2023-04-02T10:55:36;5.03;;;2.35;;
44189;SDS011;29856;52.144;5.430;2023-04-02T10:58:12;9.73;;;3.03;;
44189;SDS011;29856;52.144;5.430;2023-04-02T11:00:54;10.75;;;1.90;;
44189;SDS011;29856;52.144;5.430;2023-04-02T11:03:35;4.13;;;1.48;;
44189;SDS011;29856;52.144;5.430;2023-04-02T11:06:40;4.05;;;1.90;;
44189;SDS011;29856;52.144;5.430;2023-04-02T11:09:01;5.70;;;1.42;;
44189;SDS011;29856;52.144;5.430;2023-04-02T11:11:40;8.02;;;2.53;;
44189;SDS011;29856;52.144;5.430;2023-04-02T11:14:24;5.28;;;2.08;;
44189;SDS011;29856;52.144;5.430;2023-04-02T11:16:52;5.60;;;1.85;;
44189;SDS011;29856;52.144;5.430;2023-04-02T11:19:21;4.22;;;1.88;;
44189;SDS011;29856;52.144;5.430;2023-04-02T11:32:42;2.53;;;1.10;;
44189;SDS011;29856;52.144;5.430;2023-04-02T11:46:01;5.15;;;1.63;;
44189;SDS011;29856;52.144;5.430;2023-04-02T11:48:31;3.78;;;1.42;;
44189;SDS011;29856;52.144;5.430;2023-04-02T11:50:57;4.00;;;1.30;;
44189;SDS011;29856;52.144;5.430;2023-04-02T11:53:31;3.80;;;1.48;;
44189;SDS011;29856;52.144;5.430;2023-04-02T11:56:05;2.70;;;1.67;;
44189;SDS011;29856;52.144;5.430;2023-04-02T11:59:00;4.72;;;1.45;;
44189;SDS011;29856;52.144;5.430;2023-04-02T12:10:22;7.25;;;1.63;;
44189;SDS011;29856;52.144;5.430;2023-04-02T12:12:58;7.75;;;1.63;;
44189;SDS011;29856;52.144;5.430;2023-04-02T12:18:29;2.92;;;1.58;;
44189;SDS011;29856;52.144;5.430;2023-04-02T12:20:52;6.25;;;1.65;;
44189;SDS011;29856;52.144;5.430;2023-04-02T12:23:28;7.28;;;1.63;;
44189;SDS011;29856;52.144;5.430;2023-04-02T12:28:27;4.32;;;1.63;;
44189;SDS011;29856;52.144;5.430;2023-04-02T12:33:38;4.43;;;1.73;;
44189;SDS011;29856;52.144;5.430;2023-04-02T12:36:06;2.85;;;1.38;;
44189;SDS011;29856;52.144;5.430;2023-04-02T12:39:16;4.70;;;1.58;;
44189;SDS011;29856;52.144;5.430;2023-04-02T12:41:40;6.47;;;1.60;;
44189;SDS011;29856;52.144;5.430;2023-04-02T12:44:10;3.38;;;1.67;;
44189;SDS011;29856;52.144;5.430;2023-04-02T12:46:38;4.45;;;1.80;;
44189;SDS011;29856;52.144;5.430;2023-04-02T12:49:05;4.95;;;1.63;;
44189;SDS011;29856;52.144;5.430;2023-04-02T12:51:49;4.28;;;1.73;;
44189;SDS011;29856;52.144;5.430;2023-04-02T12:54:15;4.90;;;1.65;;
44189;SDS011;29856;52.144;5.430;2023-04-02T12:56:42;3.95;;;1.27;;
44189;SDS011;29856;52.144;5.430;2023-04-02T13:01:55;5.47;;;1.60;;
44189;SDS011;29856;52.144;5.430;2023-04-02T13:04:22;4.70;;;2.00;;
44189;SDS011;29856;52.144;5.430;2023-04-02T13:06:48;4.68;;;1.40;;
44189;SDS011;29856;52.144;5.430;2023-04-02T13:09:29;5.40;;;1.55;;
44189;SDS011;29856;52.144;5.430;2023-04-02T13:11:58;2.47;;;1.20;;
44189;SDS011;29856;52.144;5.430;2023-04-02T13:14:24;6.70;;;1.58;;
44189;SDS011;29856;52.144;5.430;2023-04-02T13:16:50;5.22;;;1.45;;
44189;SDS011;29856;52.144;5.430;2023-04-02T13:21:47;3.75;;;1.73;;
44189;SDS011;29856;52.144;5.430;2023-04-02T13:24:16;2.50;;;1.30;;
44189;SDS011;29856;52.144;5.430;2023-04-02T13:26:43;4.80;;;1.70;;
44189;SDS011;29856;52.144;5.430;2023-04-02T13:29:16;2.70;;;1.35;;
44189;SDS011;29856;52.144;5.430;2023-04-02T13:31:42;5.90;;;1.58;;
44189;SDS011;29856;52.144;5.430;2023-04-02T13:34:08;5.78;;;1.50;;
44189;SDS011;29856;52.144;5.430;2023-04-02T13:36:34;3.15;;;1.17;;
44189;SDS011;29856;52.144;5.430;2023-04-02T13:38:59;3.53;;;1.48;;
44189;SDS011;29856;52.144;5.430;2023-04-02T13:41:32;7.45;;;1.63;;
44189;SDS011;29856;52.144;5.430;2023-04-02T13:44:03;4.65;;;1.73;;
44189;SDS011;29856;52.144;5.430;2023-04-02T13:46:29;4.78;;;1.60;;
44189;SDS011;29856;52.144;5.430;2023-04-02T13:48:57;3.65;;;1.67;;
44189;SDS011;29856;52.144;5.430;2023-04-02T13:51:30;3.38;;;1.27;;
44189;SDS011;29856;52.144;5.430;2023-04-02T13:54:01;6.50;;;1.70;;
44189;SDS011;29856;52.144;5.430;2023-04-02T13:56:31;3.75;;;1.40;;
44189;SDS011;29856;52.144;5.430;2023-04-02T13:58:56;4.88;;;1.85;;
44189;SDS011;29856;52.144;5.430;2023-04-02T14:01:22;3.28;;;1.25;;
44189;SDS011;29856;52.144;5.430;2023-04-02T14:03:49;3.40;;;1.48;;
44189;SDS011;29856;52.144;5.430;2023-04-02T14:06:19;3.20;;;1.30;;
44189;SDS011;29856;52.144;5.430;2023-04-02T14:09:11;1.63;;;1.35;;
44189;SDS011;29856;52.144;5.430;2023-04-02T14:14:47;4.00;;;1.40;;
44189;SDS011;29856;52.144;5.430;2023-04-02T14:41:31;4.72;;;1.73;;
44189;SDS011;29856;52.144;5.430;2023-04-02T14:44:06;4.22;;;1.75;;
44189;SDS011;29856;52.144;5.430;2023-04-02T14:46:35;3.95;;;1.27;;
44189;SDS011;29856;52.144;5.430;2023-04-02T14:51:40;2.50;;;1.30;;
44189;SDS011;29856;52.144;5.430;2023-04-02T14:54:21;3.45;;;1.75;;
44189;SDS011;29856;52.144;5.430;2023-04-02T14:56:54;6.63;;;1.73;;
44189;SDS011;29856;52.144;5.430;2023-04-02T15:02:08;3.08;;;1.42;;
44189;SDS011;29856;52.144;5.430;2023-04-02T15:04:51;4.57;;;1.25;;
44189;SDS011;29856;52.144;5.430;2023-04-02T15:07:35;5.90;;;1.30;;
44189;SDS011;29856;52.144;5.430;2023-04-02T15:10:13;6.60;;;2.28;;
44189;SDS011;29856;52.144;5.430;2023-04-02T15:12:47;5.63;;;1.60;;
44189;SDS011;29856;52.144;5.430;2023-04-02T15:15:17;5.53;;;1.30;;
44189;SDS011;29856;52.144;5.430;2023-04-02T15:17:46;4.50;;;1.30;;
44189;SDS011;29856;52.144;5.430;2023-04-02T15:20:15;3.85;;;1.27;;
44189;SDS011;29856;52.144;5.430;2023-04-02T15:22:50;3.97;;;1.40;;
44189;SDS011;29856;52.144;5.430;2023-04-02T15:31:39;4.40;;;1.50;;
44189;SDS011;29856;52.144;5.430;2023-04-02T15:34:16;5.07;;;1.52;;
44189;SDS011;29856;52.144;5.430;2023-04-02T15:42:32;2.65;;;1.13;;
44189;SDS011;29856;52.144;5.430;2023-04-02T15:55:48;7.00;;;2.03;;
44189;SDS011;29856;52.144;5.430;2023-04-02T15:59:05;3.35;;;1.60;;
44189;SDS011;29856;52.144;5.430;2023-04-02T16:01:20;2.50;;;1.23;;
44189;SDS011;29856;52.144;5.430;2023-04-02T16:10:23;4.80;;;1.45;;
44189;SDS011;29856;52.144;5.430;2023-04-02T16:16:03;6.72;;;2.08;;
44189;SDS011;29856;52.144;5.430;2023-04-02T16:21:22;7.40;;;1.70;;
44189;SDS011;29856;52.144;5.430;2023-04-02T16:23:52;5.13;;;1.90;;
44189;SDS011;29856;52.144;5.430;2023-04-02T16:34:18;2.15;;;1.30;;
44189;SDS011;29856;52.144;5.430;2023-04-02T16:37:09;4.25;;;1.30;;
44189;SDS011;29856;52.144;5.430;2023-04-02T16:42:25;3.38;;;1.60;;
44189;SDS011;29856;52.144;5.430;2023-04-02T16:53:41;5.30;;;1.40;;
44189;SDS011;29856;52.144;5.430;2023-04-02T16:56:17;3.05;;;1.45;;
44189;SDS011;29856;52.144;5.430;2023-04-02T16:59:12;2.38;;;1.20;;
44189;SDS011;29856;52.144;5.430;2023-04-02T17:07:18;5.50;;;1.42;;
44189;SDS011;29856;52.144;5.430;2023-04-02T17:12:38;7.10;;;1.42;;
44189;SDS011;29856;52.144;5.430;2023-04-02T17:15:13;4.97;;;1.85;;
44189;SDS011;29856;52.144;5.430;2023-04-02T17:20:19;3.90;;;1.60;;
44189;SDS011;29856;52.144;5.430;2023-04-02T17:22:47;2.75;;;1.23;;
44189;SDS011;29856;52.144;5.430;2023-04-02T17:25:16;4.68;;;1.40;;
44189;SDS011;29856;52.144;5.430;2023-04-02T17:27:49;2.67;;;1.20;;
44189;SDS011;29856;52.144;5.430;2023-04-02T17:33:10;5.30;;;1.50;;
44189;SDS011;29856;52.144;5.430;2023-04-02T17:38:36;3.05;;;1.50;;
44189;SDS011;29856;52.144;5.430;2023-04-02T17:44:05;4.40;;;1.50;;
44189;SDS011;29856;52.144;5.430;2023-04-02T17:51:52;5.28;;;1.60;;
44189;SDS011;29856;52.144;5.430;2023-04-02T18:00:10;3.80;;;1.27;;
44189;SDS011;29856;52.144;5.430;2023-04-02T18:08:46;4.22;;;1.42;;
44189;SDS011;29856;52.144;5.430;2023-04-02T18:11:39;3.28;;;1.33;;
44189;SDS011;29856;52.144;5.430;2023-04-02T18:14:31;2.95;;;1.60;;
44189;SDS011;29856;52.144;5.430;2023-04-02T18:17:19;6.50;;;1.60;;
44189;SDS011;29856;52.144;5.430;2023-04-02T18:23:05;4.50;;;1.42;;
44189;SDS011;29856;52.144;5.430;2023-04-02T18:25:52;5.78;;;1.77;;
44189;SDS011;29856;52.144;5.430;2023-04-02T18:30:59;7.03;;;1.58;;
44189;SDS011;29856;52.144;5.430;2023-04-02T18:36:09;4.88;;;1.80;;
44189;SDS011;29856;52.144;5.430;2023-04-02T18:44:14;4.28;;;1.40;;
44189;SDS011;29856;52.144;5.430;2023-04-02T18:49:44;3.85;;;1.45;;
44189;SDS011;29856;52.144;5.430;2023-04-02T18:52:14;4.00;;;1.55;;
44189;SDS011;29856;52.144;5.430;2023-04-02T18:54:48;5.45;;;1.70;;
44189;SDS011;29856;52.144;5.430;2023-04-02T18:57:25;3.83;;;1.70;;
44189;SDS011;29856;52.144;5.430;2023-04-02T18:59:59;3.88;;;1.55;;
44189;SDS011;29856;52.144;5.430;2023-04-02T19:05:57;4.15;;;1.30;;
44189;SDS011;29856;52.144;5.430;2023-04-02T19:08:46;4.68;;;1.60;;
44189;SDS011;29856;52.144;5.430;2023-04-02T19:11:16;6.53;;;1.77;;
44189;SDS011;29856;52.144;5.430;2023-04-02T19:13:43;5.97;;;1.60;;
44189;SDS011;29856;52.144;5.430;2023-04-02T19:24:28;6.20;;;2.03;;
44189;SDS011;29856;52.144;5.430;2023-04-02T19:33:05;4.18;;;2.13;;
44189;SDS011;29856;52.144;5.430;2023-04-02T19:41:56;5.88;;;2.15;;
44189;SDS011;29856;52.144;5.430;2023-04-02T19:44:41;6.75;;;2.05;;
44189;SDS011;29856;52.144;5.430;2023-04-02T19:47:10;5.43;;;2.65;;
44189;SDS011;29856;52.144;5.430;2023-04-02T19:49:35;4.78;;;2.13;;
44189;SDS011;29856;52.144;5.430;2023-04-02T19:52:01;5.40;;;2.33;;
44189;SDS011;29856;52.144;5.430;2023-04-02T19:54:27;6.85;;;2.20;;
44189;SDS011;29856;52.144;5.430;2023-04-02T19:56:53;5.78;;;2.47;;
44189;SDS011;29856;52.144;5.430;2023-04-02T19:59:19;7.00;;;2.50;;
44189;SDS011;29856;52.144;5.430;2023-04-02T20:01:45;6.85;;;2.63;;
44189;SDS011;29856;52.144;5.430;2023-04-02T20:04:10;6.15;;;2.53;;
44189;SDS011;29856;52.144;5.430;2023-04-02T20:06:36;5.07;;;1.92;;
44189;SDS011;29856;52.144;5.430;2023-04-02T20:09:01;7.93;;;2.20;;
44189;SDS011;29856;52.144;5.430;2023-04-02T20:11:27;7.80;;;2.08;;
44189;SDS011;29856;52.144;5.430;2023-04-02T20:13:53;3.35;;;2.13;;
44189;SDS011;29856;52.144;5.430;2023-04-02T20:16:19;3.33;;;1.67;;
44189;SDS011;29856;52.144;5.430;2023-04-02T20:18:46;3.15;;;1.67;;
44189;SDS011;29856;52.144;5.430;2023-04-02T20:21:12;3.67;;;1.52;;
44189;SDS011;29856;52.144;5.430;2023-04-02T20:23:38;6.93;;;2.00;;
44189;SDS011;29856;52.144;5.430;2023-04-02T20:26:04;4.78;;;1.90;;
44189;SDS011;29856;52.144;5.430;2023-04-02T20:28:30;2.47;;;1.70;;
44189;SDS011;29856;52.144;5.430;2023-04-02T20:31:09;5.63;;;1.80;;
44189;SDS011;29856;52.144;5.430;2023-04-02T20:33:36;5.68;;;1.73;;
44189;SDS011;29856;52.144;5.430;2023-04-02T20:36:03;4.22;;;2.20;;
44189;SDS011;29856;52.144;5.430;2023-04-02T20:38:30;5.10;;;1.70;;
44189;SDS011;29856;52.144;5.430;2023-04-02T20:40:56;8.52;;;1.92;;
44189;SDS011;29856;52.144;5.430;2023-04-02T20:43:22;3.45;;;1.60;;